Goodfood, Mississippi
Current Conditions -  °F | °C
As of 12:53 PM on Friday 24 Oct 2014 (Local Time) from KTUP Reporting Station
Clear Clear  
Wind Chill: 69°   Ceiling: Unl
Heat Index: 69°   Visibility: 10mi
Dew Point: 44°   Wind: 6mph
Humidity: 40%   Direction: NA
Pressure: 30.11"   Gusts: NA
Location:  34.1762°N, 88.9612°W
Report Text: KTUP 241753Z AUTO VRB05KT 10SM CLR 21/07 A3011 RMK AO2 SLP193 T02060067 10211 20094 58014 $
Loading
Personal Weather Stations






























Interactive Weather Map
Tropical Storm Tracking
New forecast layout! Learn more

10-Day Weather Forecast

Advertisements
Track Severe Weather on mobile